sensor_id;sensor_type;location;lat;lon;timestamp;temperature;humidity
22974;DHT22;11653;50.848;4.584;2023-08-06T00:01:51;16.50;99.90
22974;DHT22;11653;50.848;4.584;2023-08-06T00:04:17;16.40;99.90
22974;DHT22;11653;50.848;4.584;2023-08-06T00:06:42;16.40;99.90
22974;DHT22;11653;50.848;4.584;2023-08-06T00:09:08;16.50;99.90
22974;DHT22;11653;50.848;4.584;2023-08-06T00:11:34;16.40;99.90
22974;DHT22;11653;50.848;4.584;2023-08-06T00:13:59;16.30;99.90
22974;DHT22;11653;50.848;4.584;2023-08-06T00:16:25;16.20;99.90
22974;DHT22;11653;50.848;4.584;2023-08-06T00:18:51;16.20;99.90
22974;DHT22;11653;50.848;4.584;2023-08-06T00:21:16;16.30;99.90
22974;DHT22;11653;50.848;4.584;2023-08-06T00:23:42;16.50;99.90
22974;DHT22;11653;50.848;4.584;2023-08-06T00:26:08;16.50;99.90
22974;DHT22;11653;50.848;4.584;2023-08-06T00:28:33;16.50;99.90
22974;DHT22;11653;50.848;4.584;2023-08-06T00:30:59;16.50;99.90
22974;DHT22;11653;50.848;4.584;2023-08-06T00:33:25;16.60;99.90
22974;DHT22;11653;50.848;4.584;2023-08-06T00:35:51;16.60;99.90
22974;DHT22;11653;50.848;4.584;2023-08-06T00:38:16;16.70;99.90
22974;DHT22;11653;50.848;4.584;2023-08-06T00:40:42;16.70;99.90
22974;DHT22;11653;50.848;4.584;2023-08-06T00:43:08;16.70;99.90
22974;DHT22;11653;50.848;4.584;2023-08-06T00:45:36;16.80;99.90
22974;DHT22;11653;50.848;4.584;2023-08-06T00:48:03;16.80;99.90
22974;DHT22;11653;50.848;4.584;2023-08-06T00:50:30;16.80;99.90
22974;DHT22;11653;50.848;4.584;2023-08-06T00:52:56;16.80;99.90
22974;DHT22;11653;50.848;4.584;2023-08-06T00:55:22;16.80;99.90
22974;DHT22;11653;50.848;4.584;2023-08-06T00:57:48;16.90;99.90
22974;DHT22;11653;50.848;4.584;2023-08-06T01:00:14;17.00;99.90
22974;DHT22;11653;50.848;4.584;2023-08-06T01:02:39;17.00;99.90
22974;DHT22;11653;50.848;4.584;2023-08-06T01:05:05;17.00;99.90
22974;DHT22;11653;50.848;4.584;2023-08-06T01:07:41;17.00;99.90
22974;DHT22;11653;50.848;4.584;2023-08-06T01:10:17;17.10;99.90
22974;DHT22;11653;50.848;4.584;2023-08-06T01:13:11;17.10;99.90
22974;DHT22;11653;50.848;4.584;2023-08-06T01:15:46;17.10;99.90
22974;DHT22;11653;50.848;4.584;2023-08-06T01:18:13;17.10;99.90
22974;DHT22;11653;50.848;4.584;2023-08-06T01:20:39;17.10;99.90
22974;DHT22;11653;50.848;4.584;2023-08-06T01:23:04;17.10;99.90
22974;DHT22;11653;50.848;4.584;2023-08-06T01:25:33;17.20;99.90
22974;DHT22;11653;50.848;4.584;2023-08-06T01:28:07;17.20;99.90
22974;DHT22;11653;50.848;4.584;2023-08-06T01:30:35;17.20;99.90
22974;DHT22;11653;50.848;4.584;2023-08-06T01:33:04;17.20;99.90
22974;DHT22;11653;50.848;4.584;2023-08-06T01:35:34;17.20;99.90
22974;DHT22;11653;50.848;4.584;2023-08-06T01:38:01;17.20;99.90
22974;DHT22;11653;50.848;4.584;2023-08-06T01:40:27;17.40;99.90
22974;DHT22;11653;50.848;4.584;2023-08-06T01:42:54;17.40;99.90
22974;DHT22;11653;50.848;4.584;2023-08-06T01:45:20;17.30;99.90
22974;DHT22;11653;50.848;4.584;2023-08-06T01:47:46;17.20;99.90
22974;DHT22;11653;50.848;4.584;2023-08-06T01:50:11;17.20;99.90
22974;DHT22;11653;50.848;4.584;2023-08-06T01:52:37;17.10;99.90
22974;DHT22;11653;50.848;4.584;2023-08-06T01:55:03;17.10;99.90
22974;DHT22;11653;50.848;4.584;2023-08-06T01:57:28;17.00;99.90
22974;DHT22;11653;50.848;4.584;2023-08-06T01:59:54;16.90;99.90
22974;DHT22;11653;50.848;4.584;2023-08-06T02:02:20;17.00;99.90
22974;DHT22;11653;50.848;4.584;2023-08-06T02:04:45;16.90;99.90
22974;DHT22;11653;50.848;4.584;2023-08-06T02:07:11;16.90;99.90
22974;DHT22;11653;50.848;4.584;2023-08-06T02:09:36;16.90;99.90
22974;DHT22;11653;50.848;4.584;2023-08-06T02:12:02;17.00;99.90
22974;DHT22;11653;50.848;4.584;2023-08-06T02:14:28;17.10;99.90
22974;DHT22;11653;50.848;4.584;2023-08-06T02:16:54;17.10;99.90
22974;DHT22;11653;50.848;4.584;2023-08-06T02:19:19;17.10;99.90
22974;DHT22;11653;50.848;4.584;2023-08-06T02:21:45;17.00;99.90
22974;DHT22;11653;50.848;4.584;2023-08-06T02:24:11;17.00;99.90
22974;DHT22;11653;50.848;4.584;2023-08-06T02:26:36;17.00;99.90
22974;DHT22;11653;50.848;4.584;2023-08-06T02:29:02;17.00;99.90
22974;DHT22;11653;50.848;4.584;2023-08-06T02:31:28;17.00;99.90
22974;DHT22;11653;50.848;4.584;2023-08-06T02:33:53;16.90;99.90
22974;DHT22;11653;50.848;4.584;2023-08-06T02:36:19;16.80;99.90
22974;DHT22;11653;50.848;4.584;2023-08-06T02:38:45;16.90;99.90
22974;DHT22;11653;50.848;4.584;2023-08-06T02:41:10;16.80;99.90
22974;DHT22;11653;50.848;4.584;2023-08-06T02:43:36;17.00;99.90
22974;DHT22;11653;50.848;4.584;2023-08-06T02:46:02;17.00;99.90
22974;DHT22;11653;50.848;4.584;2023-08-06T02:48:27;17.00;99.90
22974;DHT22;11653;50.848;4.584;2023-08-06T02:50:56;16.90;99.90
22974;DHT22;11653;50.848;4.584;2023-08-06T02:53:22;16.70;99.90
22974;DHT22;11653;50.848;4.584;2023-08-06T02:55:48;16.60;99.90
22974;DHT22;11653;50.848;4.584;2023-08-06T02:58:16;16.60;99.90
22974;DHT22;11653;50.848;4.584;2023-08-06T03:00:43;16.60;99.90
22974;DHT22;11653;50.848;4.584;2023-08-06T03:03:09;16.50;99.90
22974;DHT22;11653;50.848;4.584;2023-08-06T03:05:35;16.50;99.90
22974;DHT22;11653;50.848;4.584;2023-08-06T03:08:00;16.40;99.90
22974;DHT22;11653;50.848;4.584;2023-08-06T03:10:26;16.50;99.90
22974;DHT22;11653;50.848;4.584;2023-08-06T03:12:52;16.40;99.90
22974;DHT22;11653;50.848;4.584;2023-08-06T03:15:18;16.40;99.90
22974;DHT22;11653;50.848;4.584;2023-08-06T03:17:43;16.40;99.90
22974;DHT22;11653;50.848;4.584;2023-08-06T03:20:10;16.40;99.90
22974;DHT22;11653;50.848;4.584;2023-08-06T03:22:35;16.50;99.90
22974;DHT22;11653;50.848;4.584;2023-08-06T03:25:01;16.40;99.90
22974;DHT22;11653;50.848;4.584;2023-08-06T03:27:27;16.40;99.90
22974;DHT22;11653;50.848;4.584;2023-08-06T03:29:53;16.50;99.90
22974;DHT22;11653;50.848;4.584;2023-08-06T03:32:19;16.60;99.90
22974;DHT22;11653;50.848;4.584;2023-08-06T03:34:44;16.60;99.90
22974;DHT22;11653;50.848;4.584;2023-08-06T03:37:10;16.50;99.90
22974;DHT22;11653;50.848;4.584;2023-08-06T03:39:36;16.50;99.90
22974;DHT22;11653;50.848;4.584;2023-08-06T03:42:01;16.50;99.90
22974;DHT22;11653;50.848;4.584;2023-08-06T03:44:27;16.50;99.90
22974;DHT22;11653;50.848;4.584;2023-08-06T03:46:53;16.40;99.90
22974;DHT22;11653;50.848;4.584;2023-08-06T03:49:19;16.40;99.90
22974;DHT22;11653;50.848;4.584;2023-08-06T03:51:45;16.50;99.90
22974;DHT22;11653;50.848;4.584;2023-08-06T03:54:11;16.50;99.90
22974;DHT22;11653;50.848;4.584;2023-08-06T03:56:37;16.50;99.90
22974;DHT22;11653;50.848;4.584;2023-08-06T03:59:02;16.50;99.90
22974;DHT22;11653;50.848;4.584;2023-08-06T04:01:28;16.60;99.90
22974;DHT22;11653;50.848;4.584;2023-08-06T04:03:53;16.60;99.90
22974;DHT22;11653;50.848;4.584;2023-08-06T04:06:19;16.60;99.90
22974;DHT22;11653;50.848;4.584;2023-08-06T04:08:44;16.50;99.90
22974;DHT22;11653;50.848;4.584;2023-08-06T04:11:10;16.60;99.90
22974;DHT22;11653;50.848;4.584;2023-08-06T04:13:36;16.70;99.90
22974;DHT22;11653;50.848;4.584;2023-08-06T04:16:02;16.60;99.90
22974;DHT22;11653;50.848;4.584;2023-08-06T04:18:28;16.60;99.90
22974;DHT22;11653;50.848;4.584;2023-08-06T04:20:54;16.50;99.90
22974;DHT22;11653;50.848;4.584;2023-08-06T04:23:21;16.60;99.90
22974;DHT22;11653;50.848;4.584;2023-08-06T04:25:46;16.60;99.90
22974;DHT22;11653;50.848;4.584;2023-08-06T04:28:12;16.50;99.90
22974;DHT22;11653;50.848;4.584;2023-08-06T04:30:38;16.40;99.90
22974;DHT22;11653;50.848;4.584;2023-08-06T04:33:03;16.30;99.90
22974;DHT22;11653;50.848;4.584;2023-08-06T04:35:29;16.00;99.90
22974;DHT22;11653;50.848;4.584;2023-08-06T04:37:55;15.80;99.90
22974;DHT22;11653;50.848;4.584;2023-08-06T04:40:20;15.50;99.90
22974;DHT22;11653;50.848;4.584;2023-08-06T04:42:46;15.50;99.90
22974;DHT22;11653;50.848;4.584;2023-08-06T04:45:11;15.40;99.90
22974;DHT22;11653;50.848;4.584;2023-08-06T04:47:37;15.40;99.90
22974;DHT22;11653;50.848;4.584;2023-08-06T04:50:03;15.40;99.90
22974;DHT22;11653;50.848;4.584;2023-08-06T04:52:29;15.30;99.90
22974;DHT22;11653;50.848;4.584;2023-08-06T04:54:55;15.30;99.90
22974;DHT22;11653;50.848;4.584;2023-08-06T04:57:21;15.30;99.90
22974;DHT22;11653;50.848;4.584;2023-08-06T04:59:46;15.20;99.90
22974;DHT22;11653;50.848;4.584;2023-08-06T05:02:12;15.10;99.90
22974;DHT22;11653;50.848;4.584;2023-08-06T05:04:38;15.00;99.90
22974;DHT22;11653;50.848;4.584;2023-08-06T05:07:04;15.00;99.90
22974;DHT22;11653;50.848;4.584;2023-08-06T05:09:30;14.90;99.90
22974;DHT22;11653;50.848;4.584;2023-08-06T05:11:56;14.90;99.90
22974;DHT22;11653;50.848;4.584;2023-08-06T05:14:21;14.80;99.90
22974;DHT22;11653;50.848;4.584;2023-08-06T05:16:47;14.80;99.90
22974;DHT22;11653;50.848;4.584;2023-08-06T05:19:13;14.90;99.90
22974;DHT22;11653;50.848;4.584;2023-08-06T05:21:38;14.90;99.90
22974;DHT22;11653;50.848;4.584;2023-08-06T05:24:04;14.90;99.90
22974;DHT22;11653;50.848;4.584;2023-08-06T05:26:30;15.00;99.90
22974;DHT22;11653;50.848;4.584;2023-08-06T05:28:55;15.00;99.90
22974;DHT22;11653;50.848;4.584;2023-08-06T05:31:21;15.00;99.90
22974;DHT22;11653;50.848;4.584;2023-08-06T05:33:46;15.00;99.90
22974;DHT22;11653;50.848;4.584;2023-08-06T05:36:12;15.00;99.90
22974;DHT22;11653;50.848;4.584;2023-08-06T05:38:38;15.00;99.90
22974;DHT22;11653;50.848;4.584;2023-08-06T05:41:03;15.00;99.90
22974;DHT22;11653;50.848;4.584;2023-08-06T05:43:29;15.00;99.90
22974;DHT22;11653;50.848;4.584;2023-08-06T05:45:56;15.00;99.90
22974;DHT22;11653;50.848;4.584;2023-08-06T05:48:22;15.10;99.90
22974;DHT22;11653;50.848;4.584;2023-08-06T05:50:51;15.00;99.90
22974;DHT22;11653;50.848;4.584;2023-08-06T05:53:17;15.00;99.90
22974;DHT22;11653;50.848;4.584;2023-08-06T05:55:43;15.10;99.90
22974;DHT22;11653;50.848;4.584;2023-08-06T05:58:10;15.00;99.90
22974;DHT22;11653;50.848;4.584;2023-08-06T06:00:35;15.10;99.90
22974;DHT22;11653;50.848;4.584;2023-08-06T06:03:01;15.10;99.90
22974;DHT22;11653;50.848;4.584;2023-08-06T06:05:28;15.20;99.90
22974;DHT22;11653;50.848;4.584;2023-08-06T06:07:53;15.10;99.90
22974;DHT22;11653;50.848;4.584;2023-08-06T06:10:19;15.20;99.90
22974;DHT22;11653;50.848;4.584;2023-08-06T06:12:45;15.20;99.90
22974;DHT22;11653;50.848;4.584;2023-08-06T06:15:10;15.10;99.90
22974;DHT22;11653;50.848;4.584;2023-08-06T06:17:36;15.10;99.90
22974;DHT22;11653;50.848;4.584;2023-08-06T06:20:02;15.10;99.90
22974;DHT22;11653;50.848;4.584;2023-08-06T06:22:29;15.10;99.90
22974;DHT22;11653;50.848;4.584;2023-08-06T06:24:55;15.10;99.90
22974;DHT22;11653;50.848;4.584;2023-08-06T06:27:21;15.10;99.90
22974;DHT22;11653;50.848;4.584;2023-08-06T06:29:46;15.10;99.90
22974;DHT22;11653;50.848;4.584;2023-08-06T06:32:12;15.10;99.90
22974;DHT22;11653;50.848;4.584;2023-08-06T06:34:38;15.20;99.90
22974;DHT22;11653;50.848;4.584;2023-08-06T06:37:03;15.30;99.90
22974;DHT22;11653;50.848;4.584;2023-08-06T06:39:29;15.40;99.90
22974;DHT22;11653;50.848;4.584;2023-08-06T06:41:55;15.40;99.90
22974;DHT22;11653;50.848;4.584;2023-08-06T06:44:20;15.50;99.90
22974;DHT22;11653;50.848;4.584;2023-08-06T06:46:47;15.50;99.90
22974;DHT22;11653;50.848;4.584;2023-08-06T06:49:12;15.50;99.90
22974;DHT22;11653;50.848;4.584;2023-08-06T06:51:38;15.50;99.90
22974;DHT22;11653;50.848;4.584;2023-08-06T06:54:03;15.50;99.90
22974;DHT22;11653;50.848;4.584;2023-08-06T06:56:29;15.60;99.90
22974;DHT22;11653;50.848;4.584;2023-08-06T06:58:55;15.60;99.90
22974;DHT22;11653;50.848;4.584;2023-08-06T07:01:20;15.50;99.90
22974;DHT22;11653;50.848;4.584;2023-08-06T07:03:46;15.70;99.90
22974;DHT22;11653;50.848;4.584;2023-08-06T07:06:12;15.80;99.90
22974;DHT22;11653;50.848;4.584;2023-08-06T07:08:38;15.70;99.90
22974;DHT22;11653;50.848;4.584;2023-08-06T07:11:05;15.80;99.90
22974;DHT22;11653;50.848;4.584;2023-08-06T07:13:32;15.80;99.90
22974;DHT22;11653;50.848;4.584;2023-08-06T07:15:57;15.80;99.90
22974;DHT22;11653;50.848;4.584;2023-08-06T07:18:24;15.90;99.90
22974;DHT22;11653;50.848;4.584;2023-08-06T07:20:53;15.90;99.90
22974;DHT22;11653;50.848;4.584;2023-08-06T07:23:21;15.80;99.90
22974;DHT22;11653;50.848;4.584;2023-08-06T07:25:47;15.80;99.90
22974;DHT22;11653;50.848;4.584;2023-08-06T07:28:14;15.80;99.90
22974;DHT22;11653;50.848;4.584;2023-08-06T07:30:40;15.70;99.90
22974;DHT22;11653;50.848;4.584;2023-08-06T07:33:06;15.60;99.90
22974;DHT22;11653;50.848;4.584;2023-08-06T07:35:33;15.60;99.90
22974;DHT22;11653;50.848;4.584;2023-08-06T07:37:58;15.60;99.90
22974;DHT22;11653;50.848;4.584;2023-08-06T07:40:24;15.60;99.90
22974;DHT22;11653;50.848;4.584;2023-08-06T07:42:50;15.60;99.90
22974;DHT22;11653;50.848;4.584;2023-08-06T07:45:15;15.70;99.90
22974;DHT22;11653;50.848;4.584;2023-08-06T07:47:41;15.80;99.90
22974;DHT22;11653;50.848;4.584;2023-08-06T07:50:08;15.70;99.90
22974;DHT22;11653;50.848;4.584;2023-08-06T07:52:34;15.60;99.90
22974;DHT22;11653;50.848;4.584;2023-08-06T07:55:00;15.50;99.90
22974;DHT22;11653;50.848;4.584;2023-08-06T07:57:27;15.50;99.90
22974;DHT22;11653;50.848;4.584;2023-08-06T07:59:52;15.70;99.90
22974;DHT22;11653;50.848;4.584;2023-08-06T08:02:19;15.70;99.90
22974;DHT22;11653;50.848;4.584;2023-08-06T08:04:45;15.80;99.90
22974;DHT22;11653;50.848;4.584;2023-08-06T08:07:13;15.80;99.90
22974;DHT22;11653;50.848;4.584;2023-08-06T08:09:38;15.80;99.90
22974;DHT22;11653;50.848;4.584;2023-08-06T08:12:04;15.90;99.90
22974;DHT22;11653;50.848;4.584;2023-08-06T08:14:30;15.90;99.90
22974;DHT22;11653;50.848;4.584;2023-08-06T08:17:01;16.00;99.90
22974;DHT22;11653;50.848;4.584;2023-08-06T08:19:28;16.00;99.90
22974;DHT22;11653;50.848;4.584;2023-08-06T08:21:54;16.20;99.90
22974;DHT22;11653;50.848;4.584;2023-08-06T08:24:20;16.30;99.90
22974;DHT22;11653;50.848;4.584;2023-08-06T08:26:52;16.30;99.90
22974;DHT22;11653;50.848;4.584;2023-08-06T08:29:18;16.30;99.90
22974;DHT22;11653;50.848;4.584;2023-08-06T08:31:44;16.30;99.90
22974;DHT22;11653;50.848;4.584;2023-08-06T08:34:10;16.60;99.90
22974;DHT22;11653;50.848;4.584;2023-08-06T08:36:35;16.70;99.90
22974;DHT22;11653;50.848;4.584;2023-08-06T08:39:01;16.70;99.90
22974;DHT22;11653;50.848;4.584;2023-08-06T08:41:31;16.70;99.90
22974;DHT22;11653;50.848;4.584;2023-08-06T08:43:58;16.60;99.90
22974;DHT22;11653;50.848;4.584;2023-08-06T08:46:29;16.20;99.90
22974;DHT22;11653;50.848;4.584;2023-08-06T08:48:57;16.00;99.90
22974;DHT22;11653;50.848;4.584;2023-08-06T08:51:24;16.00;99.90
22974;DHT22;11653;50.848;4.584;2023-08-06T08:53:52;16.50;99.90
22974;DHT22;11653;50.848;4.584;2023-08-06T08:56:21;17.20;99.90
22974;DHT22;11653;50.848;4.584;2023-08-06T08:58:46;17.70;99.90
22974;DHT22;11653;50.848;4.584;2023-08-06T09:01:12;17.80;99.90
22974;DHT22;11653;50.848;4.584;2023-08-06T09:03:39;17.60;99.90
22974;DHT22;11653;50.848;4.584;2023-08-06T09:06:05;17.50;99.90
22974;DHT22;11653;50.848;4.584;2023-08-06T09:08:36;17.50;99.90
22974;DHT22;11653;50.848;4.584;2023-08-06T09:11:05;17.40;99.90
22974;DHT22;11653;50.848;4.584;2023-08-06T09:13:36;17.10;99.90
22974;DHT22;11653;50.848;4.584;2023-08-06T09:16:02;17.10;99.90
22974;DHT22;11653;50.848;4.584;2023-08-06T09:18:30;17.10;99.90
22974;DHT22;11653;50.848;4.584;2023-08-06T09:20:57;17.00;99.90
22974;DHT22;11653;50.848;4.584;2023-08-06T09:23:30;16.90;99.90
22974;DHT22;11653;50.848;4.584;2023-08-06T09:25:56;16.80;99.90
22974;DHT22;11653;50.848;4.584;2023-08-06T09:28:22;16.70;99.90
22974;DHT22;11653;50.848;4.584;2023-08-06T09:30:49;16.40;99.90
22974;DHT22;11653;50.848;4.584;2023-08-06T09:33:19;16.30;99.90
22974;DHT22;11653;50.848;4.584;2023-08-06T09:35:46;16.30;99.90
22974;DHT22;11653;50.848;4.584;2023-08-06T09:38:12;16.00;99.90
22974;DHT22;11653;50.848;4.584;2023-08-06T09:40:39;16.00;99.90
22974;DHT22;11653;50.848;4.584;2023-08-06T09:43:05;16.00;99.90
22974;DHT22;11653;50.848;4.584;2023-08-06T09:45:35;16.00;99.90
22974;DHT22;11653;50.848;4.584;2023-08-06T09:48:05;15.80;99.90
22974;DHT22;11653;50.848;4.584;2023-08-06T09:50:34;15.80;99.90
22974;DHT22;11653;50.848;4.584;2023-08-06T09:53:05;15.80;99.90
22974;DHT22;11653;50.848;4.584;2023-08-06T09:55:32;15.60;99.90
22974;DHT22;11653;50.848;4.584;2023-08-06T09:57:58;15.60;99.90
22974;DHT22;11653;50.848;4.584;2023-08-06T10:00:24;15.50;99.90
22974;DHT22;11653;50.848;4.584;2023-08-06T10:02:51;15.50;99.90
22974;DHT22;11653;50.848;4.584;2023-08-06T10:05:20;15.40;99.90
22974;DHT22;11653;50.848;4.584;2023-08-06T10:07:47;15.40;99.90
22974;DHT22;11653;50.848;4.584;2023-08-06T10:10:13;15.40;99.90
22974;DHT22;11653;50.848;4.584;2023-08-06T10:12:50;15.30;99.90
22974;DHT22;11653;50.848;4.584;2023-08-06T10:15:20;15.40;99.90
22974;DHT22;11653;50.848;4.584;2023-08-06T10:17:49;15.30;99.90
22974;DHT22;11653;50.848;4.584;2023-08-06T10:20:17;15.30;99.90
22974;DHT22;11653;50.848;4.584;2023-08-06T10:22:44;15.20;99.90
22974;DHT22;11653;50.848;4.584;2023-08-06T10:25:10;15.20;99.90
22974;DHT22;11653;50.848;4.584;2023-08-06T10:27:52;15.20;99.90
22974;DHT22;11653;50.848;4.584;2023-08-06T10:30:32;15.20;99.90
22974;DHT22;11653;50.848;4.584;2023-08-06T10:33:02;15.20;99.90
22974;DHT22;11653;50.848;4.584;2023-08-06T10:38:10;15.30;99.90
22974;DHT22;11653;50.848;4.584;2023-08-06T10:40:39;15.30;99.90
22974;DHT22;11653;50.848;4.584;2023-08-06T10:43:06;15.40;99.90
22974;DHT22;11653;50.848;4.584;2023-08-06T10:45:35;15.40;99.90
22974;DHT22;11653;50.848;4.584;2023-08-06T10:48:01;15.50;99.90
22974;DHT22;11653;50.848;4.584;2023-08-06T10:50:26;15.50;99.90
22974;DHT22;11653;50.848;4.584;2023-08-06T10:52:52;15.60;99.90
22974;DHT22;11653;50.848;4.584;2023-08-06T10:55:29;15.80;99.90
22974;DHT22;11653;50.848;4.584;2023-08-06T10:57:55;15.80;99.90
22974;DHT22;11653;50.848;4.584;2023-08-06T11:00:22;15.70;99.90
22974;DHT22;11653;50.848;4.584;2023-08-06T11:02:49;15.70;99.90
22974;DHT22;11653;50.848;4.584;2023-08-06T11:05:15;15.50;99.90
22974;DHT22;11653;50.848;4.584;2023-08-06T11:07:41;15.40;99.90
22974;DHT22;11653;50.848;4.584;2023-08-06T11:10:09;15.40;99.90
22974;DHT22;11653;50.848;4.584;2023-08-06T11:12:35;15.40;99.90
22974;DHT22;11653;50.848;4.584;2023-08-06T11:15:02;15.50;99.90
22974;DHT22;11653;50.848;4.584;2023-08-06T11:17:29;15.40;99.90
22974;DHT22;11653;50.848;4.584;2023-08-06T11:19:55;15.40;99.90
22974;DHT22;11653;50.848;4.584;2023-08-06T11:22:21;15.50;99.90
22974;DHT22;11653;50.848;4.584;2023-08-06T11:24:48;15.50;99.90
22974;DHT22;11653;50.848;4.584;2023-08-06T11:27:15;15.70;99.90
22974;DHT22;11653;50.848;4.584;2023-08-06T11:29:42;15.80;99.90
22974;DHT22;11653;50.848;4.584;2023-08-06T11:32:08;15.80;99.90
22974;DHT22;11653;50.848;4.584;2023-08-06T11:34:35;15.70;99.90
22974;DHT22;11653;50.848;4.584;2023-08-06T11:37:02;15.70;99.90
22974;DHT22;11653;50.848;4.584;2023-08-06T11:39:28;15.70;99.90
22974;DHT22;11653;50.848;4.584;2023-08-06T11:41:54;15.70;99.90
22974;DHT22;11653;50.848;4.584;2023-08-06T11:44:20;15.60;99.90
22974;DHT22;11653;50.848;4.584;2023-08-06T11:46:53;15.60;99.90
22974;DHT22;11653;50.848;4.584;2023-08-06T11:49:37;15.60;99.90
22974;DHT22;11653;50.848;4.584;2023-08-06T11:52:23;15.60;99.90
22974;DHT22;11653;50.848;4.584;2023-08-06T11:55:02;15.50;99.90
22974;DHT22;11653;50.848;4.584;2023-08-06T11:57:30;15.30;99.90
22974;DHT22;11653;50.848;4.584;2023-08-06T12:00:18;15.20;99.90
22974;DHT22;11653;50.848;4.584;2023-08-06T12:02:46;15.10;99.90
22974;DHT22;11653;50.848;4.584;2023-08-06T12:05:15;15.10;99.90
22974;DHT22;11653;50.848;4.584;2023-08-06T12:07:46;15.20;99.90
22974;DHT22;11653;50.848;4.584;2023-08-06T12:10:13;15.30;99.90
22974;DHT22;11653;50.848;4.584;2023-08-06T12:12:39;15.60;99.90
22974;DHT22;11653;50.848;4.584;2023-08-06T12:15:06;15.70;99.90
22974;DHT22;11653;50.848;4.584;2023-08-06T12:17:32;15.90;99.90
22974;DHT22;11653;50.848;4.584;2023-08-06T12:19:58;16.00;99.90
22974;DHT22;11653;50.848;4.584;2023-08-06T12:22:24;16.30;99.90
22974;DHT22;11653;50.848;4.584;2023-08-06T12:24:50;16.30;99.90
22974;DHT22;11653;50.848;4.584;2023-08-06T12:27:15;16.40;99.90
22974;DHT22;11653;50.848;4.584;2023-08-06T12:29:47;16.60;99.90
22974;DHT22;11653;50.848;4.584;2023-08-06T12:32:14;16.70;99.90
22974;DHT22;11653;50.848;4.584;2023-08-06T12:34:41;16.70;99.90
22974;DHT22;11653;50.848;4.584;2023-08-06T12:37:08;16.50;99.90
22974;DHT22;11653;50.848;4.584;2023-08-06T12:39:34;16.60;99.90
22974;DHT22;11653;50.848;4.584;2023-08-06T12:42:01;16.70;99.90
22974;DHT22;11653;50.848;4.584;2023-08-06T12:44:27;16.90;99.90
22974;DHT22;11653;50.848;4.584;2023-08-06T12:46:53;16.80;99.90
22974;DHT22;11653;50.848;4.584;2023-08-06T12:49:20;16.70;99.90
22974;DHT22;11653;50.848;4.584;2023-08-06T12:51:52;16.60;99.90
22974;DHT22;11653;50.848;4.584;2023-08-06T12:54:22;16.50;99.90
22974;DHT22;11653;50.848;4.584;2023-08-06T12:56:48;16.30;99.90
22974;DHT22;11653;50.848;4.584;2023-08-06T12:59:15;16.20;99.90
22974;DHT22;11653;50.848;4.584;2023-08-06T13:01:41;16.20;99.90
22974;DHT22;11653;50.848;4.584;2023-08-06T13:04:07;16.10;99.90
22974;DHT22;11653;50.848;4.584;2023-08-06T13:06:33;16.10;99.90
22974;DHT22;11653;50.848;4.584;2023-08-06T13:09:03;15.90;99.90
22974;DHT22;11653;50.848;4.584;2023-08-06T13:11:30;15.70;99.90
22974;DHT22;11653;50.848;4.584;2023-08-06T13:14:03;15.70;99.90
22974;DHT22;11653;50.848;4.584;2023-08-06T13:16:29;15.50;99.90
22974;DHT22;11653;50.848;4.584;2023-08-06T13:18:54;15.50;99.90
22974;DHT22;11653;50.848;4.584;2023-08-06T13:21:20;15.50;99.90
22974;DHT22;11653;50.848;4.584;2023-08-06T13:23:46;15.40;99.90
22974;DHT22;11653;50.848;4.584;2023-08-06T13:26:13;15.30;99.90
22974;DHT22;11653;50.848;4.584;2023-08-06T13:28:39;15.30;99.90
22974;DHT22;11653;50.848;4.584;2023-08-06T13:31:04;15.50;99.90
22974;DHT22;11653;50.848;4.584;2023-08-06T13:33:30;15.50;99.90
22974;DHT22;11653;50.848;4.584;2023-08-06T13:35:56;15.50;99.90
22974;DHT22;11653;50.848;4.584;2023-08-06T13:38:21;15.50;99.90
22974;DHT22;11653;50.848;4.584;2023-08-06T13:40:48;15.60;99.90
22974;DHT22;11653;50.848;4.584;2023-08-06T13:43:13;15.70;99.90
22974;DHT22;11653;50.848;4.584;2023-08-06T13:45:41;15.80;99.90
22974;DHT22;11653;50.848;4.584;2023-08-06T13:48:07;16.00;99.90
22974;DHT22;11653;50.848;4.584;2023-08-06T13:50:32;15.80;99.90
22974;DHT22;11653;50.848;4.584;2023-08-06T13:52:58;15.80;99.90
22974;DHT22;11653;50.848;4.584;2023-08-06T13:55:24;15.80;99.90
22974;DHT22;11653;50.848;4.584;2023-08-06T13:57:49;15.60;99.90
22974;DHT22;11653;50.848;4.584;2023-08-06T14:00:17;15.60;99.90
22974;DHT22;11653;50.848;4.584;2023-08-06T14:02:43;15.50;99.90
22974;DHT22;11653;50.848;4.584;2023-08-06T14:05:11;15.30;99.90
22974;DHT22;11653;50.848;4.584;2023-08-06T14:07:37;15.10;99.90
22974;DHT22;11653;50.848;4.584;2023-08-06T14:10:03;15.10;99.90
22974;DHT22;11653;50.848;4.584;2023-08-06T14:12:29;14.90;99.90
22974;DHT22;11653;50.848;4.584;2023-08-06T14:14:54;14.90;99.90
22974;DHT22;11653;50.848;4.584;2023-08-06T14:17:20;14.90;99.90
22974;DHT22;11653;50.848;4.584;2023-08-06T14:19:45;14.90;99.90
22974;DHT22;11653;50.848;4.584;2023-08-06T14:22:11;15.00;99.90
22974;DHT22;11653;50.848;4.584;2023-08-06T14:24:37;15.00;99.90
22974;DHT22;11653;50.848;4.584;2023-08-06T14:27:03;15.10;99.90
22974;DHT22;11653;50.848;4.584;2023-08-06T14:29:29;15.20;99.90
22974;DHT22;11653;50.848;4.584;2023-08-06T14:31:55;15.30;99.90
22974;DHT22;11653;50.848;4.584;2023-08-06T14:34:21;15.30;99.90
22974;DHT22;11653;50.848;4.584;2023-08-06T14:36:46;15.30;99.90
22974;DHT22;11653;50.848;4.584;2023-08-06T14:39:12;15.10;99.90
22974;DHT22;11653;50.848;4.584;2023-08-06T14:41:38;15.10;99.90
22974;DHT22;11653;50.848;4.584;2023-08-06T14:44:03;15.20;99.90
22974;DHT22;11653;50.848;4.584;2023-08-06T14:46:29;15.20;99.90
22974;DHT22;11653;50.848;4.584;2023-08-06T14:48:55;15.30;99.90
22974;DHT22;11653;50.848;4.584;2023-08-06T14:51:20;15.50;99.90
22974;DHT22;11653;50.848;4.584;2023-08-06T14:53:46;15.40;99.90
22974;DHT22;11653;50.848;4.584;2023-08-06T14:56:12;15.30;99.90
22974;DHT22;11653;50.848;4.584;2023-08-06T14:58:38;15.30;99.90
22974;DHT22;11653;50.848;4.584;2023-08-06T15:01:03;15.30;99.90
22974;DHT22;11653;50.848;4.584;2023-08-06T15:03:29;15.30;99.90
22974;DHT22;11653;50.848;4.584;2023-08-06T15:05:56;15.40;99.90
22974;DHT22;11653;50.848;4.584;2023-08-06T15:08:22;15.50;99.90
22974;DHT22;11653;50.848;4.584;2023-08-06T15:10:51;15.50;99.90
22974;DHT22;11653;50.848;4.584;2023-08-06T15:13:18;15.50;99.90
22974;DHT22;11653;50.848;4.584;2023-08-06T15:15:45;15.50;99.90
22974;DHT22;11653;50.848;4.584;2023-08-06T15:18:11;15.50;99.90
22974;DHT22;11653;50.848;4.584;2023-08-06T15:20:37;15.40;99.90
22974;DHT22;11653;50.848;4.584;2023-08-06T15:23:02;15.30;99.90
22974;DHT22;11653;50.848;4.584;2023-08-06T15:25:28;15.30;99.90
22974;DHT22;11653;50.848;4.584;2023-08-06T15:27:54;15.30;99.90
22974;DHT22;11653;50.848;4.584;2023-08-06T15:30:19;15.30;99.90